Time;durP1;ratioP1;P1;durP2;ratioP2;P2;SDS_P1;SDS_P2;PMS_P1;PMS_P2;Temp;Humidity;BMP_temperature;BMP_pressure;BME280_temperature;BME280_humidity;BME280_pressure;Samples;Min_cycle;Max_cycle;Signal;HPM_P1;HPM_P2
2023/07/22 00:00:48;;;;;;;5.20;2.90;;;27.40;96.70;;;;;;5104254;27;20043;-81
2023/07/22 00:03:17;;;;;;;5.80;3.10;;;27.40;96.70;;;;;;5086028;28;20036;-81
2023/07/22 00:05:46;;;;;;;5.07;2.75;;;27.30;96.70;;;;;;5112546;27;20032;-81
2023/07/22 00:08:14;;;;;;;6.32;2.60;;;27.30;96.70;;;;;;5087239;28;20044;-80
2023/07/22 00:10:43;;;;;;;6.20;2.72;;;27.30;96.70;;;;;;5087559;28;20052;-81
2023/07/22 00:13:11;;;;;;;5.72;2.78;;;27.40;96.70;;;;;;5089632;28;20608;-82
2023/07/22 00:15:39;;;;;;;4.70;2.60;;;27.30;96.70;;;;;;5088277;28;20036;-82
2023/07/22 00:18:07;;;;;;;11.07;3.65;;;27.20;96.70;;;;;;5102183;27;20055;-80
2023/07/22 00:20:35;;;;;;;5.78;2.90;;;27.20;96.70;;;;;;5103212;27;20481;-80
2023/07/22 00:23:05;;;;;;;4.63;2.72;;;27.10;96.70;;;;;;5083647;28;20040;-82
2023/07/22 00:25:33;;;;;;;10.15;3.10;;;27.10;96.70;;;;;;5087257;28;20415;-80
2023/07/22 00:28:03;;;;;;;6.68;2.97;;;27.10;96.70;;;;;;5090434;28;20052;-82
2023/07/22 00:30:32;;;;;;;4.85;3.17;;;27.10;96.70;;;;;;5086784;28;20052;-82
2023/07/22 00:33:00;;;;;;;6.90;3.65;;;27.10;96.70;;;;;;5094166;28;20097;-82
2023/07/22 00:35:29;;;;;;;7.03;3.20;;;27.10;96.70;;;;;;5094792;28;20520;-81
2023/07/22 00:37:57;;;;;;;6.10;3.30;;;27.10;96.70;;;;;;5086340;28;20506;-81
2023/07/22 00:40:27;;;;;;;5.25;3.08;;;27.00;96.70;;;;;;5090488;28;20059;-81
2023/07/22 00:42:55;;;;;;;6.13;3.05;;;27.00;96.70;;;;;;5082738;28;20052;-81
2023/07/22 00:45:24;;;;;;;8.90;3.10;;;27.00;96.70;;;;;;5085654;28;20093;-81
2023/07/22 00:47:52;;;;;;;6.15;3.10;;;26.90;96.70;;;;;;5102035;27;20808;-81
2023/07/22 00:50:23;;;;;;;9.18;3.05;;;26.90;96.70;;;;;;5103431;27;20093;-82
2023/07/22 00:52:52;;;;;;;5.30;2.88;;;26.90;96.70;;;;;;5099945;28;20063;-81
2023/07/22 00:55:20;;;;;;;4.47;3.03;;;26.90;96.70;;;;;;5088543;28;20047;-81
2023/07/22 00:57:50;;;;;;;6.15;2.78;;;26.90;96.70;;;;;;5115627;27;20059;-81
2023/07/22 01:00:18;;;;;;;11.35;3.63;;;26.90;96.70;;;;;;5109431;27;20526;-81
2023/07/22 01:02:46;;;;;;;6.97;3.10;;;26.90;96.70;;;;;;5094678;28;20071;-79
2023/07/22 01:05:15;;;;;;;7.43;3.42;;;26.90;96.70;;;;;;5084805;28;20504;-81
2023/07/22 01:07:44;;;;;;;8.40;3.20;;;26.80;96.70;;;;;;5086936;28;20055;-81
2023/07/22 01:10:14;;;;;;;7.82;3.33;;;26.80;96.70;;;;;;5084769;28;20047;-81
2023/07/22 01:12:44;;;;;;;5.72;3.10;;;26.70;96.70;;;;;;5101424;27;20052;-81
2023/07/22 01:15:14;;;;;;;6.03;3.10;;;26.70;96.70;;;;;;5085379;28;20040;-81
2023/07/22 01:17:42;;;;;;;7.13;2.95;;;26.70;96.70;;;;;;5093852;28;20473;-81
2023/07/22 01:20:12;;;;;;;8.50;3.10;;;26.70;96.70;;;;;;5103065;28;20059;-81
2023/07/22 01:22:43;;;;;;;7.55;3.15;;;26.70;96.70;;;;;;5083903;28;20043;-81
2023/07/22 01:25:13;;;;;;;5.20;3.15;;;26.60;96.70;;;;;;5085904;28;20110;-81
2023/07/22 01:27:41;;;;;;;7.07;3.30;;;26.60;96.70;;;;;;5093239;28;20046;-82
2023/07/22 01:30:10;;;;;;;6.30;3.50;;;26.70;96.70;;;;;;5093201;28;20084;-80
2023/07/22 01:32:38;;;;;;;8.75;3.35;;;26.60;96.70;;;;;;5111882;27;20048;-81
2023/07/22 01:35:07;;;;;;;6.40;3.10;;;26.70;96.70;;;;;;5105888;27;20046;-82
2023/07/22 01:37:35;;;;;;;5.30;3.15;;;26.70;96.70;;;;;;5086438;28;20048;-81
2023/07/22 01:40:11;;;;;;;6.78;3.08;;;26.70;96.70;;;;;;5090141;28;20050;-81
2023/07/22 01:42:42;;;;;;;8.10;2.88;;;26.60;96.70;;;;;;5104070;27;20040;-81
2023/07/22 01:45:11;;;;;;;5.15;2.85;;;26.60;96.70;;;;;;5109672;27;21281;-81
2023/07/22 01:47:42;;;;;;;5.22;3.28;;;26.40;96.70;;;;;;5101174;28;20043;-81
2023/07/22 01:50:11;;;;;;;8.00;3.05;;;26.50;96.70;;;;;;5088416;28;20048;-81
2023/07/22 01:52:39;;;;;;;6.53;2.92;;;26.40;96.70;;;;;;5105206;27;20101;-81
2023/07/22 01:55:10;;;;;;;6.30;3.33;;;26.50;96.70;;;;;;5109888;27;20544;-80
2023/07/22 01:57:41;;;;;;;5.88;2.90;;;26.40;96.70;;;;;;5101706;28;20101;-80
2023/07/22 02:00:10;;;;;;;5.90;2.80;;;26.40;96.70;;;;;;5099494;28;20488;-81
2023/07/22 02:02:42;;;;;;;7.07;2.80;;;26.50;96.70;;;;;;5101372;28;20054;-82
2023/07/22 02:05:10;;;;;;;4.85;2.83;;;26.50;96.70;;;;;;5091940;28;20139;-81
2023/07/22 02:07:38;;;;;;;4.35;2.67;;;26.30;96.70;;;;;;5102848;28;20040;-81
2023/07/22 02:10:09;;;;;;;5.63;2.90;;;26.20;96.70;;;;;;5114770;27;20044;-82
2023/07/22 02:12:37;;;;;;;5.05;2.58;;;26.20;96.70;;;;;;5091886;28;20449;-82
2023/07/22 02:15:08;;;;;;;5.70;3.13;;;26.20;96.70;;;;;;5106057;27;20047;-82
2023/07/22 02:17:36;;;;;;;5.72;2.63;;;26.10;96.70;;;;;;5095509;28;20061;-81
2023/07/22 02:20:05;;;;;;;6.40;2.83;;;26.10;96.70;;;;;;5101864;27;20378;-81
2023/07/22 02:22:33;;;;;;;6.00;2.80;;;26.20;96.70;;;;;;5109197;27;20597;-82
2023/07/22 02:25:01;;;;;;;6.70;2.40;;;26.20;96.70;;;;;;5090308;28;20121;-81
2023/07/22 02:27:29;;;;;;;5.43;2.95;;;26.30;96.70;;;;;;5087751;28;20050;-81
2023/07/22 02:29:58;;;;;;;5.70;2.58;;;26.20;96.70;;;;;;5073076;28;20044;-80
2023/07/22 02:32:27;;;;;;;6.35;2.97;;;26.20;96.70;;;;;;5088042;28;20144;-81
2023/07/22 02:34:55;;;;;;;5.35;2.53;;;26.20;96.70;;;;;;5101757;27;20044;-81
2023/07/22 02:37:24;;;;;;;7.78;3.05;;;26.10;96.70;;;;;;5105273;27;20055;-81
2023/07/22 02:39:55;;;;;;;6.15;2.78;;;26.10;96.70;;;;;;5105984;27;20480;-81
2023/07/22 02:42:23;;;;;;;9.50;3.25;;;26.10;96.70;;;;;;5089276;28;20036;-81
2023/07/22 02:44:51;;;;;;;5.97;3.08;;;26.10;96.70;;;;;;5104436;27;20052;-82
2023/07/22 02:47:19;;;;;;;6.43;2.90;;;26.10;96.70;;;;;;5104095;27;20051;-80
2023/07/22 02:49:49;;;;;;;4.95;2.50;;;26.10;96.70;;;;;;5096186;28;20106;-82
2023/07/22 02:52:17;;;;;;;5.05;2.92;;;26.00;96.70;;;;;;5088776;28;20048;-82
2023/07/22 02:55:05;;;;;;;8.30;2.80;;;25.90;96.70;;;;;;5109215;27;20092;-81
2023/07/22 02:57:33;;;;;;;5.93;2.97;;;25.80;96.70;;;;;;5088180;28;20047;-82
2023/07/22 03:00:06;;;;;;;6.47;3.40;;;25.80;96.70;;;;;;5102000;27;20063;-81
2023/07/22 03:02:35;;;;;;;7.43;3.53;;;25.70;96.70;;;;;;5107676;27;20058;-81
2023/07/22 03:05:09;;;;;;;6.22;3.03;;;25.80;96.70;;;;;;5093141;28;20036;-82
2023/07/22 03:07:38;;;;;;;7.65;3.15;;;25.70;96.70;;;;;;5097506;28;20044;-82
2023/07/22 03:10:07;;;;;;;6.72;3.15;;;25.60;96.70;;;;;;5092436;28;20051;-81
2023/07/22 03:12:36;;;;;;;4.65;2.90;;;25.60;96.70;;;;;;5078642;28;20075;-80
2023/07/22 03:15:05;;;;;;;7.22;3.00;;;25.60;96.70;;;;;;5103472;27;20036;-82
2023/07/22 03:17:33;;;;;;;4.75;3.03;;;25.50;96.70;;;;;;5088437;28;20128;-80
2023/07/22 03:20:01;;;;;;;7.90;3.22;;;25.50;96.70;;;;;;5104498;27;20142;-80
2023/07/22 03:22:31;;;;;;;6.90;3.30;;;25.50;96.70;;;;;;5095063;28;20144;-81
2023/07/22 03:24:59;;;;;;;7.65;3.33;;;25.60;96.70;;;;;;5086283;28;20044;-80
2023/07/22 03:27:27;;;;;;;5.90;3.70;;;25.60;96.70;;;;;;5087868;28;20075;-82
2023/07/22 03:29:55;;;;;;;7.90;3.63;;;25.50;96.70;;;;;;5113505;27;20066;-81
2023/07/22 03:32:23;;;;;;;4.90;2.97;;;25.40;96.70;;;;;;5108602;27;21227;-80
2023/07/22 03:34:52;;;;;;;7.38;3.50;;;25.40;96.70;;;;;;5087261;28;20131;-81
2023/07/22 03:37:20;;;;;;;7.25;3.40;;;25.50;96.70;;;;;;5111964;27;20116;-81
2023/07/22 03:39:50;;;;;;;7.45;3.38;;;25.60;96.70;;;;;;5088498;28;20044;-81
2023/07/22 03:42:18;;;;;;;5.18;3.17;;;25.50;96.70;;;;;;5118274;27;20109;-80
2023/07/22 03:44:46;;;;;;;6.03;2.97;;;25.40;96.70;;;;;;5086727;28;20083;-81
2023/07/22 03:47:14;;;;;;;8.75;3.08;;;25.40;96.70;;;;;;5086688;28;20090;-81
2023/07/22 03:49:42;;;;;;;5.28;3.58;;;25.50;96.70;;;;;;5085976;28;20413;-81
2023/07/22 03:52:14;;;;;;;7.40;3.53;;;25.50;96.70;;;;;;5120085;27;20048;-81
2023/07/22 03:54:42;;;;;;;6.07;3.00;;;25.50;96.70;;;;;;5103414;27;20036;-81
2023/07/22 03:57:11;;;;;;;7.25;3.28;;;25.40;96.70;;;;;;5091646;28;20044;-81
2023/07/22 03:59:40;;;;;;;5.50;3.00;;;25.40;96.70;;;;;;5108082;27;20062;-81
2023/07/22 04:02:08;;;;;;;5.97;3.58;;;25.30;96.70;;;;;;5102466;28;20507;-80
2023/07/22 04:04:35;;;;;;;5.13;3.35;;;25.20;96.70;;;;;;5111620;27;20128;-83
2023/07/22 04:07:07;;;;;;;4.95;3.30;;;25.30;96.70;;;;;;5097283;28;20040;-81
2023/07/22 04:09:35;;;;;;;5.70;3.25;;;25.20;96.70;;;;;;5108983;27;20048;-80
2023/07/22 04:12:04;;;;;;;4.78;3.10;;;25.30;96.70;;;;;;5090302;28;20048;-81
2023/07/22 04:14:33;;;;;;;7.18;2.97;;;25.50;96.70;;;;;;5085835;28;20383;-81
2023/07/22 04:17:04;;;;;;;5.20;3.45;;;25.50;96.70;;;;;;5096087;28;20130;-80
2023/07/22 04:19:32;;;;;;;5.80;3.00;;;25.50;96.70;;;;;;5102367;28;20097;-82
2023/07/22 04:22:03;;;;;;;7.30;3.60;;;25.40;96.70;;;;;;5095651;28;20054;-81
2023/07/22 04:24:32;;;;;;;6.10;3.38;;;25.30;96.70;;;;;;5085287;28;20126;-80
2023/07/22 04:27:00;;;;;;;5.75;3.63;;;25.10;96.70;;;;;;5095698;28;20457;-80
2023/07/22 04:29:28;;;;;;;5.93;3.20;;;25.10;96.70;;;;;;5101923;27;20437;-81
2023/07/22 04:31:59;;;;;;;7.32;3.38;;;25.30;96.70;;;;;;5084542;28;20105;-81
2023/07/22 04:34:29;;;;;;;4.18;2.80;;;25.40;96.70;;;;;;5088460;28;20124;-82
2023/07/22 04:36:57;;;;;;;7.43;3.03;;;25.40;96.70;;;;;;5091580;28;20070;-81
2023/07/22 04:39:26;;;;;;;4.88;2.70;;;25.50;96.70;;;;;;5103232;27;20129;-81
2023/07/22 04:41:54;;;;;;;7.63;3.15;;;25.50;96.70;;;;;;5103926;28;20044;-81
2023/07/22 04:44:22;;;;;;;6.05;3.13;;;25.50;96.70;;;;;;5085703;28;20040;-80
2023/07/22 04:46:50;;;;;;;3.85;2.50;;;25.50;96.70;;;;;;5093158;28;20531;-82
2023/07/22 04:49:19;;;;;;;5.57;2.70;;;25.60;96.70;;;;;;5085586;28;20695;-80
2023/07/22 04:51:47;;;;;;;5.47;2.90;;;25.60;96.70;;;;;;5089777;28;20075;-80
2023/07/22 04:54:15;;;;;;;3.75;2.95;;;25.60;96.70;;;;;;5099591;28;20036;-80
2023/07/22 04:56:43;;;;;;;7.82;3.03;;;25.60;96.70;;;;;;5092661;28;20648;-81
2023/07/22 04:59:13;;;;;;;5.50;2.85;;;25.60;96.70;;;;;;5095621;28;20040;-80
2023/07/22 05:01:41;;;;;;;6.30;3.47;;;25.50;96.70;;;;;;5101333;28;20040;-80
2023/07/22 05:04:09;;;;;;;6.80;3.25;;;25.50;96.70;;;;;;5086287;28;20044;-81
2023/07/22 05:06:39;;;;;;;5.35;3.17;;;25.40;96.70;;;;;;5086040;28;20044;-81
2023/07/22 05:09:07;;;;;;;6.40;3.22;;;25.40;96.70;;;;;;5087237;28;20048;-81
2023/07/22 05:11:35;;;;;;;6.50;3.20;;;25.60;96.70;;;;;;5092597;28;20370;-80
2023/07/22 05:14:03;;;;;;;5.68;3.20;;;25.60;96.70;;;;;;5097483;28;20501;-81
2023/07/22 05:16:31;;;;;;;5.55;3.47;;;25.60;96.70;;;;;;5096250;28;20663;-82
2023/07/22 05:18:59;;;;;;;7.85;3.60;;;25.70;96.70;;;;;;5091625;28;20074;-81
2023/07/22 05:21:27;;;;;;;8.20;3.20;;;25.80;96.70;;;;;;5079743;28;20633;-81
2023/07/22 05:23:57;;;;;;;7.22;2.47;;;25.80;96.70;;;;;;5088173;28;20039;-81
2023/07/22 05:26:25;;;;;;;7.72;3.22;;;25.80;96.70;;;;;;5091231;28;20115;-81
2023/07/22 05:28:53;;;;;;;7.38;3.03;;;25.90;96.70;;;;;;5094785;28;20047;-81
2023/07/22 05:31:21;;;;;;;4.28;2.70;;;25.90;96.70;;;;;;5100870;27;20090;-80
2023/07/22 05:33:49;;;;;;;7.72;3.30;;;26.00;96.70;;;;;;5084222;28;20151;-85
2023/07/22 05:36:18;;;;;;;6.43;3.08;;;26.00;96.70;;;;;;5102478;28;20043;-82
2023/07/22 05:38:46;;;;;;;7.72;2.90;;;26.00;96.70;;;;;;5084532;28;20499;-82
2023/07/22 05:41:16;;;;;;;7.70;3.58;;;26.20;96.70;;;;;;5087418;28;20048;-82
2023/07/22 05:43:44;;;;;;;9.07;3.33;;;26.20;96.70;;;;;;5085678;28;20047;-82
2023/07/22 05:46:12;;;;;;;4.40;2.95;;;26.10;96.70;;;;;;5085747;28;20051;-81
2023/07/22 05:48:40;;;;;;;5.72;2.80;;;26.20;96.70;;;;;;5088178;28;20040;-82
2023/07/22 05:51:09;;;;;;;7.15;3.05;;;26.30;96.70;;;;;;5094973;28;20044;-83
2023/07/22 05:53:37;;;;;;;7.72;2.95;;;26.20;96.70;;;;;;5091794;28;20066;-82
2023/07/22 05:56:05;;;;;;;7.40;2.95;;;26.20;96.70;;;;;;5087518;28;20707;-83
2023/07/22 05:58:35;;;;;;;8.02;3.72;;;26.20;96.70;;;;;;5090494;28;20052;-81
2023/07/22 06:01:03;;;;;;;6.85;3.50;;;26.40;96.70;;;;;;5086321;28;20078;-82
2023/07/22 06:03:31;;;;;;;12.68;3.40;;;26.50;96.70;;;;;;5102568;28;20075;-82
2023/07/22 06:05:59;;;;;;;11.35;4.20;;;26.40;96.70;;;;;;5078052;28;20044;-83
2023/07/22 06:08:27;;;;;;;8.05;3.28;;;26.40;96.70;;;;;;5102361;28;20493;-82
2023/07/22 06:10:56;;;;;;;7.90;3.70;;;26.50;96.70;;;;;;5099725;28;20101;-83
2023/07/22 06:13:24;;;;;;;7.72;4.20;;;26.70;96.70;;;;;;5085638;28;20063;-82
2023/07/22 06:15:54;;;;;;;10.13;3.80;;;26.70;96.70;;;;;;5110785;28;20428;-81
2023/07/22 06:18:22;;;;;;;7.78;3.40;;;26.80;96.70;;;;;;5079330;28;20040;-82
2023/07/22 06:20:51;;;;;;;6.65;3.33;;;26.90;96.70;;;;;;5092916;28;20040;-82
2023/07/22 06:23:19;;;;;;;9.70;3.17;;;26.90;96.70;;;;;;5102049;28;20525;-80
2023/07/22 06:25:47;;;;;;;7.28;3.42;;;27.00;96.70;;;;;;5100436;28;20439;-81
2023/07/22 06:28:15;;;;;;;7.88;3.50;;;26.80;96.70;;;;;;5112794;28;20074;-81
2023/07/22 06:30:43;;;;;;;11.40;3.75;;;26.90;96.70;;;;;;5083038;28;20043;-80
2023/07/22 06:33:13;;;;;;;8.50;3.47;;;27.00;96.70;;;;;;5108185;28;20055;-81
2023/07/22 06:35:41;;;;;;;7.43;3.58;;;27.00;96.70;;;;;;5100607;28;20671;-83
2023/07/22 06:38:09;;;;;;;10.55;4.40;;;27.10;96.70;;;;;;5114562;28;20043;-87
2023/07/22 06:40:37;;;;;;;9.27;5.20;;;27.20;96.70;;;;;;5104005;28;20652;-83
2023/07/22 06:43:06;;;;;;;9.40;6.50;;;27.20;96.70;;;;;;5107263;28;20047;-82
2023/07/22 06:45:34;;;;;;;9.77;4.97;;;27.30;96.70;;;;;;5096378;28;20043;-83
2023/07/22 06:48:02;;;;;;;9.95;4.75;;;27.30;96.70;;;;;;5104144;28;20055;-82
2023/07/22 06:50:32;;;;;;;10.00;4.28;;;27.30;96.70;;;;;;5086972;28;20649;-82
2023/07/22 06:53:01;;;;;;;8.13;3.65;;;27.30;96.70;;;;;;5102755;28;20070;-82
2023/07/22 06:55:29;;;;;;;9.18;3.53;;;27.40;96.70;;;;;;5105121;27;20101;-83
2023/07/22 06:57:58;;;;;;;6.22;3.53;;;27.40;96.70;;;;;;5106434;27;20047;-82
2023/07/22 07:00:26;;;;;;;14.10;9.02;;;27.40;96.70;;;;;;5098777;28;20423;-80
2023/07/22 07:02:55;;;;;;;15.20;7.78;;;27.50;96.70;;;;;;5096139;28;20067;-78
2023/07/22 07:05:23;;;;;;;19.30;13.38;;;27.50;96.70;;;;;;5096232;28;20070;-77
2023/07/22 07:07:55;;;;;;;8.45;4.53;;;27.60;96.70;;;;;;5097304;28;20131;-76
2023/07/22 07:10:23;;;;;;;8.05;5.05;;;27.70;96.70;;;;;;5100509;28;20039;-76
2023/07/22 07:12:52;;;;;;;10.88;5.07;;;27.80;96.70;;;;;;5098493;28;20160;-78
2023/07/22 07:15:20;;;;;;;8.18;3.53;;;27.90;96.70;;;;;;5104626;28;20611;-79
2023/07/22 07:17:48;;;;;;;9.98;4.25;;;28.00;96.70;;;;;;5121826;27;20065;-79
2023/07/22 07:20:16;;;;;;;9.52;3.58;;;28.10;96.70;;;;;;5115478;27;20035;-79
2023/07/22 07:22:45;;;;;;;7.95;3.42;;;28.10;96.70;;;;;;5092184;28;20052;-77
2023/07/22 07:25:15;;;;;;;8.35;3.50;;;28.10;96.70;;;;;;5087449;28;20131;-79
2023/07/22 07:27:43;;;;;;;7.28;3.42;;;28.20;96.70;;;;;;5090433;28;20039;-78
2023/07/22 07:30:12;;;;;;;7.63;3.22;;;28.30;96.70;;;;;;5091440;28;20042;-79
2023/07/22 07:32:40;;;;;;;7.45;3.63;;;28.50;96.70;;;;;;5097127;28;20512;-80
2023/07/22 07:35:10;;;;;;;9.73;3.83;;;28.60;96.70;;;;;;5119596;27;20043;-78
2023/07/22 07:37:38;;;;;;;8.82;3.30;;;28.70;96.70;;;;;;5113407;27;20044;-78
2023/07/22 07:40:08;;;;;;;12.80;3.80;;;28.80;96.70;;;;;;5111724;27;20043;-78
2023/07/22 07:42:38;;;;;;;9.57;3.53;;;28.80;96.70;;;;;;5091188;28;20119;-79
2023/07/22 07:45:07;;;;;;;8.13;3.40;;;28.80;96.70;;;;;;5101236;28;20528;-81
2023/07/22 07:47:36;;;;;;;13.77;3.78;;;29.00;96.70;;;;;;5087995;28;20071;-80
2023/07/22 07:50:06;;;;;;;12.68;4.53;;;29.10;96.70;;;;;;5102511;27;20109;-81
2023/07/22 07:52:34;;;;;;;8.48;3.63;;;29.20;96.70;;;;;;5103917;27;20504;-80
2023/07/22 07:55:03;;;;;;;8.90;3.58;;;29.20;96.70;;;;;;5098940;28;20043;-80
2023/07/22 07:57:31;;;;;;;9.23;4.00;;;29.20;96.70;;;;;;5113075;27;20055;-80
2023/07/22 08:00:01;;;;;;;10.07;4.28;;;29.20;96.70;;;;;;5095034;28;20051;-81
2023/07/22 08:02:31;;;;;;;8.13;3.30;;;29.30;96.70;;;;;;5104557;28;20062;-80
2023/07/22 08:04:59;;;;;;;12.43;3.92;;;29.30;96.70;;;;;;5080373;28;20042;-80
2023/07/22 08:07:27;;;;;;;6.22;3.42;;;29.40;96.70;;;;;;5096697;28;20046;-80
2023/07/22 08:09:57;;;;;;;10.32;4.03;;;29.40;96.70;;;;;;5094930;28;20047;-79
2023/07/22 08:12:25;;;;;;;7.00;3.58;;;29.20;96.70;;;;;;5092949;28;20035;-80
2023/07/22 08:14:53;;;;;;;8.07;3.65;;;29.20;96.70;;;;;;5078011;28;20562;-80
2023/07/22 08:17:23;;;;;;;8.75;3.53;;;29.20;96.70;;;;;;5085829;28;20044;-79
2023/07/22 08:19:52;;;;;;;8.18;3.90;;;29.30;96.70;;;;;;5091105;28;20097;-78
2023/07/22 08:22:20;;;;;;;9.88;3.47;;;29.50;96.70;;;;;;5089684;28;20109;-80
2023/07/22 08:24:49;;;;;;;8.10;3.83;;;29.70;96.70;;;;;;5085493;28;20054;-77
2023/07/22 08:27:17;;;;;;;9.02;3.95;;;29.60;96.70;;;;;;5117925;27;20047;-79
2023/07/22 08:29:45;;;;;;;8.85;3.33;;;29.60;96.70;;;;;;5106492;27;20139;-79
2023/07/22 08:32:13;;;;;;;10.75;3.92;;;29.40;96.70;;;;;;5102840;28;20059;-78
2023/07/22 08:34:43;;;;;;;7.22;3.90;;;29.50;96.70;;;;;;5086317;28;20044;-79
2023/07/22 08:37:11;;;;;;;11.20;4.38;;;29.40;96.70;;;;;;5106478;27;20055;-76
2023/07/22 08:39:39;;;;;;;9.43;3.42;;;29.50;96.70;;;;;;5102407;28;20052;-80
2023/07/22 08:42:08;;;;;;;9.20;3.95;;;29.60;96.70;;;;;;5105696;28;20043;-78
2023/07/22 08:44:41;;;;;;;11.25;3.80;;;29.80;96.70;;;;;;5109271;27;20050;-78
2023/07/22 08:47:14;;;;;;;11.07;3.88;;;29.70;96.70;;;;;;5097787;28;20520;-78
2023/07/22 08:49:49;;;;;;;11.13;3.78;;;29.70;96.70;;;;;;5120975;27;20404;-77
2023/07/22 08:52:18;;;;;;;10.10;4.32;;;29.70;96.70;;;;;;5101941;28;20035;-77
2023/07/22 08:54:48;;;;;;;10.07;3.72;;;29.60;96.70;;;;;;5100269;28;20039;-77
2023/07/22 08:57:17;;;;;;;10.40;4.03;;;29.70;96.70;;;;;;5121240;27;20073;-77
2023/07/22 08:59:46;;;;;;;9.38;4.13;;;29.80;96.70;;;;;;5098371;28;20417;-78
2023/07/22 09:02:16;;;;;;;11.85;4.50;;;29.80;96.70;;;;;;5107064;27;20068;-78
2023/07/22 09:04:46;;;;;;;7.93;3.95;;;29.60;96.70;;;;;;5104960;28;20073;-75
2023/07/22 09:07:16;;;;;;;8.60;4.00;;;29.70;96.70;;;;;;5104878;28;20044;-75
2023/07/22 09:09:46;;;;;;;9.98;3.67;;;29.80;96.70;;;;;;5113379;27;20506;-77
2023/07/22 09:12:15;;;;;;;9.00;3.53;;;29.90;96.70;;;;;;5119981;27;20497;-77
2023/07/22 09:14:45;;;;;;;10.32;3.83;;;30.00;96.70;;;;;;5119136;27;20059;-77
2023/07/22 09:17:13;;;;;;;10.30;4.13;;;30.00;96.70;;;;;;5118221;27;20518;-76
2023/07/22 09:19:41;;;;;;;8.15;4.10;;;30.20;96.70;;;;;;5114572;27;20075;-76
2023/07/22 09:22:11;;;;;;;9.30;3.95;;;30.20;96.70;;;;;;5067977;28;20078;-76
2023/07/22 09:24:39;;;;;;;9.63;4.07;;;30.30;96.70;;;;;;5104250;28;20527;-77
2023/07/22 09:27:08;;;;;;;11.45;4.38;;;30.20;96.70;;;;;;5103579;28;20127;-76
2023/07/22 09:29:38;;;;;;;10.60;3.88;;;30.20;96.70;;;;;;5104363;28;20126;-77
2023/07/22 09:32:07;;;;;;;11.30;3.80;;;30.40;96.70;;;;;;5103250;28;20128;-78
2023/07/22 09:34:35;;;;;;;11.75;4.15;;;30.40;96.70;;;;;;5104740;27;20048;-81
2023/07/22 09:37:05;;;;;;;9.93;4.00;;;30.60;96.70;;;;;;5085031;28;20128;-81
2023/07/22 09:39:35;;;;;;;9.25;3.80;;;30.70;96.70;;;;;;5101821;28;20079;-82
2023/07/22 09:42:05;;;;;;;11.32;4.03;;;30.70;96.70;;;;;;5102181;28;20130;-82
2023/07/22 09:44:36;;;;;;;11.85;4.28;;;30.60;96.70;;;;;;5109761;27;20125;-82
2023/07/22 09:47:08;;;;;;;8.30;3.80;;;30.70;96.70;;;;;;5084020;28;20048;-82
2023/07/22 09:49:42;;;;;;;11.32;4.32;;;30.70;96.70;;;;;;5110437;27;20048;-83
2023/07/22 09:52:12;;;;;;;10.63;4.97;;;30.70;96.70;;;;;;5089079;28;20086;-83
2023/07/22 09:54:51;;;;;;;13.68;4.43;;;30.70;96.70;;;;;;5112872;27;20051;-86
2023/07/22 09:57:22;;;;;;;11.20;4.38;;;30.80;96.70;;;;;;5104687;28;20048;-81
2023/07/22 09:59:52;;;;;;;8.63;3.95;;;30.90;96.70;;;;;;5095275;28;20516;-85
2023/07/22 10:02:22;;;;;;;7.25;3.65;;;30.90;96.70;;;;;;5094379;28;20072;-80
2023/07/22 10:04:53;;;;;;;10.68;4.15;;;30.90;96.70;;;;;;5104792;28;20162;-83
2023/07/22 10:07:22;;;;;;;11.85;4.13;;;30.90;96.70;;;;;;5119877;28;20063;-78
2023/07/22 10:09:55;;;;;;;11.60;4.72;;;31.00;96.70;;;;;;5108090;28;20039;-81
2023/07/22 10:12:24;;;;;;;9.32;4.03;;;31.00;96.70;;;;;;5110403;28;20128;-82
2023/07/22 10:14:53;;;;;;;13.85;4.18;;;31.10;96.70;;;;;;5102128;28;20112;-81
2023/07/22 10:17:22;;;;;;;9.38;4.15;;;31.10;96.70;;;;;;5095834;28;20550;-81
2023/07/22 10:19:53;;;;;;;8.60;3.70;;;31.30;96.70;;;;;;5090190;28;20053;-81
2023/07/22 10:22:21;;;;;;;11.20;4.50;;;31.20;96.70;;;;;;5105006;28;20215;-80
2023/07/22 10:24:53;;;;;;;11.48;4.07;;;31.30;96.70;;;;;;5093224;28;20417;-82
2023/07/22 10:27:23;;;;;;;11.60;4.30;;;31.50;96.70;;;;;;5112036;28;20047;-82
2023/07/22 10:29:53;;;;;;;9.05;3.72;;;31.50;96.70;;;;;;5092533;28;20040;-82
2023/07/22 10:32:22;;;;;;;13.38;3.88;;;31.60;96.70;;;;;;5088540;28;20051;-82
2023/07/22 10:34:50;;;;;;;14.77;4.88;;;31.70;96.70;;;;;;5105366;28;20539;-82
2023/07/22 10:37:24;;;;;;;12.32;4.07;;;31.60;96.70;;;;;;5097352;28;20120;-83
2023/07/22 10:39:59;;;;;;;9.43;4.25;;;31.70;96.70;;;;;;5107837;27;20528;-83
2023/07/22 10:42:31;;;;;;;9.30;4.35;;;31.70;96.70;;;;;;5113384;27;20043;-79
2023/07/22 10:45:01;;;;;;;11.35;4.60;;;31.80;96.70;;;;;;5097582;28;20048;-82
2023/07/22 10:47:34;;;;;;;7.38;4.00;;;31.80;96.70;;;;;;5123347;27;20052;-85
2023/07/22 10:50:07;;;;;;;8.88;4.03;;;31.80;96.70;;;;;;5093685;28;20048;-82
2023/07/22 10:52:42;;;;;;;10.32;4.63;;;31.80;96.70;;;;;;5106722;27;20052;-83
2023/07/22 10:55:19;;;;;;;12.02;4.38;;;31.90;96.70;;;;;;5100922;28;20485;-81
2023/07/22 10:57:49;;;;;;;8.98;4.13;;;32.00;96.70;;;;;;5114332;27;20052;-82
2023/07/22 11:00:20;;;;;;;13.57;4.75;;;32.10;96.70;;;;;;5090573;28;20048;-84
2023/07/22 11:03:09;;;;;;;10.77;4.40;;;32.10;96.70;;;;;;5097949;28;20048;-82
2023/07/22 11:05:52;;;;;;;11.63;4.28;;;32.30;96.70;;;;;;5105607;27;20043;-82
2023/07/22 11:08:37;;;;;;;10.65;4.88;;;32.30;96.70;;;;;;5086947;28;20051;-81
2023/07/22 11:11:08;;;;;;;10.25;4.63;;;32.30;96.70;;;;;;5089597;28;20576;-84
2023/07/22 11:13:40;;;;;;;8.15;4.38;;;32.30;96.70;;;;;;5116864;27;20548;-83
2023/07/22 11:16:12;;;;;;;8.32;3.63;;;32.40;96.70;;;;;;5094515;28;20062;-82
2023/07/22 11:18:42;;;;;;;8.65;3.95;;;32.40;96.70;;;;;;5106957;27;20465;-81
2023/07/22 11:21:11;;;;;;;10.52;4.35;;;32.50;96.70;;;;;;5089248;28;20072;-80
2023/07/22 11:23:40;;;;;;;9.27;4.40;;;32.50;96.70;;;;;;5084856;28;20109;-81
2023/07/22 11:26:11;;;;;;;8.65;4.10;;;32.50;96.70;;;;;;5084473;28;20059;-80
2023/07/22 11:28:41;;;;;;;9.50;4.03;;;32.50;96.70;;;;;;5106811;27;20047;-80
2023/07/22 11:31:11;;;;;;;10.20;3.47;;;32.30;96.70;;;;;;5088291;28;20552;-82
2023/07/22 11:33:40;;;;;;;8.82;4.03;;;32.50;96.70;;;;;;5098973;27;20367;-80
2023/07/22 11:36:09;;;;;;;7.65;3.40;;;32.50;96.70;;;;;;5107454;27;20138;-81
2023/07/22 11:38:37;;;;;;;9.35;4.63;;;32.50;96.70;;;;;;5091120;28;20028;-80
2023/07/22 11:41:06;;;;;;;7.43;3.70;;;32.40;96.70;;;;;;5083883;28;20490;-79
2023/07/22 11:43:36;;;;;;;15.90;4.35;;;32.50;96.70;;;;;;5080179;28;20048;-78
2023/07/22 11:46:06;;;;;;;8.20;3.63;;;32.50;96.70;;;;;;5103760;27;20521;-78
2023/07/22 11:48:34;;;;;;;8.75;3.80;;;32.60;96.70;;;;;;5087426;28;20051;-76
2023/07/22 11:51:03;;;;;;;9.05;4.22;;;32.60;96.70;;;;;;5086802;28;20127;-77
2023/07/22 11:53:31;;;;;;;6.53;3.53;;;32.70;96.70;;;;;;5071060;28;20048;-78
2023/07/22 11:56:00;;;;;;;6.45;3.80;;;32.80;96.70;;;;;;5113319;27;20063;-80
2023/07/22 11:58:31;;;;;;;10.48;4.38;;;32.80;96.70;;;;;;5084936;28;20117;-81
2023/07/22 12:01:10;;;;;;;9.05;3.85;;;32.80;96.70;;;;;;5087526;28;20059;-80
2023/07/22 12:03:40;;;;;;;7.15;3.83;;;33.00;96.70;;;;;;5102346;28;20062;-79
2023/07/22 12:06:08;;;;;;;7.95;3.72;;;33.00;96.70;;;;;;5092110;28;20046;-80
2023/07/22 12:08:42;;;;;;;9.15;4.03;;;33.00;96.70;;;;;;5111453;27;20623;-82
2023/07/22 12:11:17;;;;;;;7.60;4.00;;;33.10;96.70;;;;;;5097408;27;20040;-81
2023/07/22 12:13:50;;;;;;;8.65;3.83;;;33.00;96.70;;;;;;5094998;27;20048;-79
2023/07/22 12:16:23;;;;;;;8.93;4.18;;;33.00;96.70;;;;;;5092043;28;20044;-78
2023/07/22 12:18:56;;;;;;;8.70;4.05;;;33.00;96.70;;;;;;5101065;27;20519;-80
2023/07/22 12:21:24;;;;;;;9.60;4.22;;;32.90;96.70;;;;;;5103309;27;20048;-80
2023/07/22 12:23:54;;;;;;;6.35;3.78;;;32.90;96.70;;;;;;5086366;28;20494;-82
2023/07/22 12:26:23;;;;;;;7.85;3.78;;;33.00;96.70;;;;;;5089459;28;20192;-80
2023/07/22 12:28:51;;;;;;;7.18;3.47;;;33.10;96.70;;;;;;5091639;28;20314;-80
2023/07/22 12:31:19;;;;;;;6.57;3.53;;;33.30;96.70;;;;;;5089695;28;20059;-82
2023/07/22 12:33:50;;;;;;;10.13;3.95;;;33.40;96.70;;;;;;5093973;28;20047;-82
2023/07/22 12:36:18;;;;;;;10.45;3.90;;;33.40;96.70;;;;;;5106121;28;20090;-85
2023/07/22 12:38:47;;;;;;;5.95;3.28;;;33.60;96.70;;;;;;5093234;28;20049;-83
2023/07/22 12:41:15;;;;;;;7.18;3.90;;;33.50;96.70;;;;;;5089292;28;20044;-82
2023/07/22 12:43:44;;;;;;;7.75;3.83;;;33.70;96.70;;;;;;5102391;28;20056;-79
2023/07/22 12:46:13;;;;;;;7.35;4.10;;;33.60;96.70;;;;;;5100426;28;20093;-77
2023/07/22 12:48:41;;;;;;;6.97;3.25;;;33.50;96.70;;;;;;5092906;28;20047;-78
2023/07/22 12:51:11;;;;;;;6.53;3.95;;;33.50;96.70;;;;;;5097802;28;20063;-78
2023/07/22 12:53:39;;;;;;;9.30;4.03;;;33.50;96.70;;;;;;5098179;28;20524;-77
2023/07/22 12:56:08;;;;;;;7.18;3.50;;;33.60;96.70;;;;;;5106513;27;20134;-78